createdAt,value
2023-01-21T00:00:27.160Z,1011.74
2023-01-21T00:01:27.342Z,1011.79
2023-01-21T00:02:27.154Z,1011.77
2023-01-21T00:03:27.142Z,1011.85
2023-01-21T00:04:27.305Z,1011.81
2023-01-21T00:05:27.110Z,1011.92
2023-01-21T00:06:27.092Z,1011.91
2023-01-21T00:07:27.098Z,1011.88
2023-01-21T00:08:27.083Z,1012.04
2023-01-21T00:09:27.248Z,1011.98
2023-01-21T00:10:27.033Z,1012.07
2023-01-21T00:11:27.032Z,1012.06
2023-01-21T00:12:27.024Z,1012.07
2023-01-21T00:13:27.011Z,1012.05
2023-01-21T00:14:27.001Z,1012.09
2023-01-21T00:15:27.039Z,1012.10
2023-01-21T00:16:26.961Z,1012.08
2023-01-21T00:17:26.968Z,1012.12
2023-01-21T00:18:28.253Z,1012.21
2023-01-21T00:19:27.121Z,1012.14
2023-01-21T00:20:26.914Z,1012.17
2023-01-21T00:21:26.920Z,1012.16
2023-01-21T00:22:26.894Z,1012.26
2023-01-21T00:23:26.884Z,1012.32
2023-01-21T00:24:27.882Z,1012.21
2023-01-21T00:25:26.852Z,1012.30
2023-01-21T00:26:26.850Z,1012.33
2023-01-21T00:27:26.840Z,1012.34
2023-01-21T00:28:26.816Z,1012.36
2023-01-21T00:29:27.017Z,1012.29
2023-01-21T00:30:26.795Z,1012.29
2023-01-21T00:31:26.826Z,1012.34
2023-01-21T00:32:26.784Z,1012.31
2023-01-21T00:33:26.756Z,1012.34
2023-01-21T00:34:26.753Z,1012.32
2023-01-21T00:35:26.735Z,1012.40
2023-01-21T00:36:26.727Z,1012.40
2023-01-21T00:37:26.718Z,1012.46
2023-01-21T00:38:26.697Z,1012.40
2023-01-21T00:39:26.675Z,1012.43
2023-01-21T00:40:26.664Z,1012.38
2023-01-21T00:41:26.673Z,1012.45
2023-01-21T00:42:26.643Z,1012.51
2023-01-21T00:43:26.635Z,1012.52
2023-01-21T00:44:26.614Z,1012.53
2023-01-21T00:45:26.612Z,1012.51
2023-01-21T00:46:26.646Z,1012.61
2023-01-21T00:47:26.766Z,1012.63
2023-01-21T00:48:26.568Z,1012.60
2023-01-21T00:49:26.561Z,1012.66
2023-01-21T00:50:26.566Z,1012.60
2023-01-21T00:51:26.588Z,1012.55
2023-01-21T00:52:26.702Z,1012.61
2023-01-21T00:53:26.511Z,1012.64
2023-01-21T00:54:26.504Z,1012.69
2023-01-21T00:55:26.483Z,1012.66
2023-01-21T00:56:26.461Z,1012.62
2023-01-21T00:57:26.630Z,1012.69
2023-01-21T00:58:26.620Z,1012.68
2023-01-21T00:59:26.430Z,1012.73
2023-01-21T01:00:26.412Z,1012.68
2023-01-21T01:01:26.482Z,1012.71
2023-01-21T01:02:26.415Z,1012.80
2023-01-21T01:03:26.556Z,1012.74
2023-01-21T01:04:26.373Z,1012.79
2023-01-21T01:05:26.357Z,1012.84
2023-01-21T01:06:26.337Z,1012.84
2023-01-21T01:07:26.327Z,1012.90
2023-01-21T01:08:26.499Z,1012.91
2023-01-21T01:09:26.309Z,1013.00
2023-01-21T01:10:26.285Z,1012.98
2023-01-21T01:11:26.276Z,1012.97
2023-01-21T01:12:26.264Z,1012.95
2023-01-21T01:13:26.254Z,1013.03
2023-01-21T01:14:26.406Z,1013.01
2023-01-21T01:15:26.707Z,1013.08
2023-01-21T01:16:26.217Z,1013.08
2023-01-21T01:17:26.203Z,1013.10
2023-01-21T01:18:26.195Z,1013.10
2023-01-21T01:19:26.185Z,1013.17
2023-01-21T01:20:26.153Z,1013.11
2023-01-21T01:21:26.174Z,1013.17
2023-01-21T01:22:26.142Z,1013.18
2023-01-21T01:23:26.132Z,1013.24
2023-01-21T01:24:26.131Z,1013.26
2023-01-21T01:25:26.112Z,1013.29
2023-01-21T01:26:26.102Z,1013.29
2023-01-21T01:27:26.272Z,1013.28
2023-01-21T01:28:26.250Z,1013.34
2023-01-21T01:29:26.064Z,1013.34
2023-01-21T01:30:26.067Z,1013.37
2023-01-21T01:31:26.104Z,1013.36
2023-01-21T01:32:26.018Z,1013.41
2023-01-21T01:33:26.191Z,1013.45
2023-01-21T01:34:25.991Z,1013.46
2023-01-21T01:35:25.983Z,1013.42
2023-01-21T01:36:25.959Z,1013.41
2023-01-21T01:37:25.959Z,1013.46
2023-01-21T01:38:26.097Z,1013.42
2023-01-21T01:39:25.934Z,1013.48
2023-01-21T01:40:25.909Z,1013.45
2023-01-21T01:41:26.092Z,1013.46
2023-01-21T01:42:25.887Z,1013.47
2023-01-21T01:43:25.889Z,1013.51
2023-01-21T01:44:25.869Z,1013.45
2023-01-21T01:45:25.861Z,1013.53
2023-01-21T01:46:26.087Z,1013.51
2023-01-21T01:47:25.834Z,1013.55
2023-01-21T01:48:25.813Z,1013.55
2023-01-21T01:49:25.815Z,1013.63
2023-01-21T01:50:25.799Z,1013.63
2023-01-21T01:51:25.819Z,1013.52
2023-01-21T01:52:25.756Z,1013.57
2023-01-21T01:53:25.928Z,1013.57
2023-01-21T01:54:25.738Z,1013.60
2023-01-21T01:55:25.737Z,1013.57
2023-01-21T01:56:25.713Z,1013.58
2023-01-21T01:57:25.716Z,1013.60
2023-01-21T01:58:25.891Z,1013.66
2023-01-21T01:59:25.674Z,1013.70
2023-01-21T02:00:25.665Z,1013.73
2023-01-21T02:01:25.717Z,1013.67
2023-01-21T02:02:25.633Z,1013.69
2023-01-21T02:03:25.633Z,1013.72
2023-01-21T02:04:25.622Z,1013.67
2023-01-21T02:05:25.592Z,1013.75
2023-01-21T02:06:25.599Z,1013.76
2023-01-21T02:07:25.751Z,1013.75
2023-01-21T02:08:25.744Z,1013.72
2023-01-21T02:09:25.552Z,1013.73
2023-01-21T02:10:25.549Z,1013.76
2023-01-21T02:11:25.528Z,1013.74
2023-01-21T02:12:25.700Z,1013.73
2023-01-21T02:13:25.669Z,1013.81
2023-01-21T02:14:25.489Z,1013.74
2023-01-21T02:15:25.480Z,1013.73
2023-01-21T02:16:25.502Z,1013.69
2023-01-21T02:17:25.451Z,1013.69
2023-01-21T02:18:25.611Z,1013.76
2023-01-21T02:19:25.436Z,1013.79
2023-01-21T02:20:25.424Z,1013.77
2023-01-21T02:21:25.570Z,1013.75
2023-01-21T02:22:25.397Z,1013.78
2023-01-21T02:23:25.546Z,1013.81
2023-01-21T02:24:25.376Z,1013.83
2023-01-21T02:25:25.347Z,1013.83
2023-01-21T02:26:25.516Z,1013.83
2023-01-21T02:27:30.776Z,1013.81
2023-01-21T02:28:26.485Z,1013.94
2023-01-21T02:29:25.295Z,1013.87
2023-01-21T02:30:25.294Z,1013.88
2023-01-21T02:31:25.351Z,1013.90
2023-01-21T02:32:25.276Z,1013.91
2023-01-21T02:33:25.423Z,1013.94
2023-01-21T02:34:25.241Z,1013.93
2023-01-21T02:35:25.244Z,1013.97
2023-01-21T02:36:25.226Z,1013.95
2023-01-21T02:37:25.207Z,1013.97
2023-01-21T02:38:25.362Z,1013.97
2023-01-21T02:39:25.200Z,1014.01
2023-01-21T02:40:25.172Z,1014.01
2023-01-21T02:41:25.336Z,1014.04
2023-01-21T02:42:25.131Z,1014.04
2023-01-21T02:43:25.131Z,1014.05
2023-01-21T02:44:25.115Z,1014.06
2023-01-21T02:45:25.123Z,1014.05
2023-01-21T02:46:25.278Z,1014.01
2023-01-21T02:47:25.074Z,1014.07
2023-01-21T02:48:25.060Z,1014.02
2023-01-21T02:49:25.238Z,1014.15
2023-01-21T02:50:25.041Z,1014.08
2023-01-21T02:51:25.049Z,1014.12
2023-01-21T02:52:25.007Z,1014.08
2023-01-21T02:53:25.024Z,1014.11
2023-01-21T02:54:25.159Z,1014.10
2023-01-21T02:55:24.979Z,1014.05
2023-01-21T02:56:24.956Z,1014.08
2023-01-21T02:57:24.980Z,1014.10
2023-01-21T02:58:24.936Z,1014.13
2023-01-21T02:59:25.108Z,1014.18
2023-01-21T03:00:25.126Z,1014.12
2023-01-21T03:01:24.896Z,1014.16
2023-01-21T03:02:24.887Z,1014.16
2023-01-21T03:03:24.881Z,1014.19
2023-01-21T03:04:24.862Z,1014.26
2023-01-21T03:05:25.022Z,1014.20
2023-01-21T03:06:25.024Z,1014.25
2023-01-21T03:07:24.838Z,1014.15
2023-01-21T03:08:24.803Z,1014.24
2023-01-21T03:09:24.812Z,1014.26
2023-01-21T03:10:25.103Z,1014.26
2023-01-21T03:11:24.774Z,1014.30
2023-01-21T03:12:24.768Z,1014.33
2023-01-21T03:13:24.753Z,1014.30
2023-01-21T03:14:24.747Z,1014.31
2023-01-21T03:15:25.036Z,1014.37
2023-01-21T03:16:24.788Z,1014.31
2023-01-21T03:17:24.703Z,1014.41
2023-01-21T03:18:24.708Z,1014.37
2023-01-21T03:19:24.671Z,1014.33
2023-01-21T03:20:24.673Z,1014.28
2023-01-21T03:21:24.810Z,1014.36
2023-01-21T03:22:24.640Z,1014.31
2023-01-21T03:23:24.620Z,1014.41
2023-01-21T03:24:24.620Z,1014.43
2023-01-21T03:25:24.591Z,1014.30
2023-01-21T03:26:24.772Z,1014.39
2023-01-21T03:27:24.589Z,1014.39
2023-01-21T03:28:24.561Z,1014.48
2023-01-21T03:29:24.548Z,1014.53
2023-01-21T03:30:24.550Z,1014.54
2023-01-21T03:31:24.698Z,1014.53
2023-01-21T03:32:24.517Z,1014.57
2023-01-21T03:33:24.507Z,1014.57
2023-01-21T03:34:24.491Z,1014.57
2023-01-21T03:35:24.479Z,1014.57
2023-01-21T03:36:24.639Z,1014.59
2023-01-21T03:37:24.649Z,1014.64
2023-01-21T03:38:24.438Z,1014.60
2023-01-21T03:39:24.420Z,1014.60
2023-01-21T03:40:24.415Z,1014.66
2023-01-21T03:41:24.405Z,1014.65
2023-01-21T03:42:24.573Z,1014.67
2023-01-21T03:43:24.373Z,1014.66
2023-01-21T03:44:24.365Z,1014.72
2023-01-21T03:45:24.413Z,1014.75
2023-01-21T03:46:24.345Z,1014.76
2023-01-21T03:47:24.510Z,1014.76
2023-01-21T03:48:24.485Z,1014.76
2023-01-21T03:49:24.301Z,1014.83
2023-01-21T03:50:24.297Z,1014.84
2023-01-21T03:51:24.304Z,1014.85
2023-01-21T03:52:24.262Z,1014.86
2023-01-21T03:53:24.435Z,1014.88
2023-01-21T03:54:24.239Z,1014.80
2023-01-21T03:55:24.392Z,1014.90
2023-01-21T03:56:24.207Z,1014.82
2023-01-21T03:57:24.201Z,1014.83
2023-01-21T03:58:24.193Z,1014.87
2023-01-21T03:59:24.179Z,1014.84
2023-01-21T04:00:24.189Z,1014.89
2023-01-21T04:01:24.140Z,1014.81
2023-01-21T04:02:24.166Z,1014.88
2023-01-21T04:03:24.116Z,1014.80
2023-01-21T04:04:24.291Z,1014.81
2023-01-21T04:05:24.279Z,1014.87
2023-01-21T04:06:24.089Z,1014.90
2023-01-21T04:07:24.078Z,1014.93
2023-01-21T04:08:24.065Z,1014.87
2023-01-21T04:09:24.057Z,1014.85
2023-01-21T04:10:24.229Z,1014.85
2023-01-21T04:11:24.032Z,1014.92
2023-01-21T04:12:24.199Z,1014.93
2023-01-21T04:13:23.996Z,1014.87
2023-01-21T04:14:24.158Z,1014.87
2023-01-21T04:15:23.967Z,1014.95
2023-01-21T04:16:24.003Z,1014.90
2023-01-21T04:17:24.126Z,1015.00
2023-01-21T04:18:23.946Z,1014.87
2023-01-21T04:19:24.095Z,1014.96
2023-01-21T04:20:24.095Z,1014.94
2023-01-21T04:21:23.893Z,1014.99
2023-01-21T04:22:23.894Z,1014.98
2023-01-21T04:23:23.891Z,1015.01
2023-01-21T04:24:23.894Z,1015.06
2023-01-21T04:25:24.022Z,1015.08
2023-01-21T04:26:23.872Z,1015.06
2023-01-21T04:27:23.837Z,1015.11
2023-01-21T04:28:23.864Z,1015.07
2023-01-21T04:29:23.972Z,1015.04
2023-01-21T04:30:23.853Z,1015.13
2023-01-21T04:31:23.804Z,1015.10
2023-01-21T04:32:23.774Z,1015.14
2023-01-21T04:33:23.750Z,1015.10
2023-01-21T04:34:23.906Z,1015.10
2023-01-21T04:35:23.724Z,1015.07
2023-01-21T04:36:23.727Z,1015.15
2023-01-21T04:37:23.702Z,1015.09
2023-01-21T04:38:23.865Z,1015.10
2023-01-21T04:39:23.679Z,1015.10
2023-01-21T04:40:23.678Z,1015.11
2023-01-21T04:41:25.455Z,1015.10
2023-01-21T04:42:23.892Z,1015.12
2023-01-21T04:43:23.617Z,1015.13
2023-01-21T04:44:23.607Z,1015.07
2023-01-21T04:45:23.587Z,1015.12
2023-01-21T04:46:23.591Z,1015.13
2023-01-21T04:47:23.756Z,1015.14
2023-01-21T04:48:23.770Z,1015.08
2023-01-21T04:49:23.544Z,1015.17
2023-01-21T04:50:23.549Z,1015.13
2023-01-21T04:51:23.705Z,1015.14
2023-01-21T04:52:23.520Z,1015.15
2023-01-21T04:53:23.510Z,1015.16
2023-01-21T04:54:23.484Z,1015.08
2023-01-21T04:55:26.130Z,1015.20
2023-01-21T04:56:23.643Z,1015.14
2023-01-21T04:57:23.631Z,1015.19
2023-01-21T04:58:23.615Z,1015.18
2023-01-21T04:59:23.424Z,1015.21
2023-01-21T05:00:23.436Z,1015.17
2023-01-21T05:01:23.453Z,1015.18
2023-01-21T05:02:23.577Z,1015.25
2023-01-21T05:03:23.637Z,1015.21
2023-01-21T05:04:23.384Z,1015.18
2023-01-21T05:05:23.349Z,1015.22
2023-01-21T05:06:23.330Z,1015.17
2023-01-21T05:07:23.337Z,1015.21
2023-01-21T05:08:23.601Z,1015.21
2023-01-21T05:09:23.494Z,1015.32
2023-01-21T05:10:23.290Z,1015.22
2023-01-21T05:11:23.278Z,1015.28
2023-01-21T05:12:23.271Z,1015.35
2023-01-21T05:13:23.245Z,1015.36
2023-01-21T05:14:23.262Z,1015.40
2023-01-21T05:15:23.219Z,1015.41
2023-01-21T05:16:23.308Z,1015.41
2023-01-21T05:17:23.198Z,1015.41
2023-01-21T05:18:23.194Z,1015.41
2023-01-21T05:19:23.352Z,1015.43
2023-01-21T05:20:23.157Z,1015.45
2023-01-21T05:21:23.336Z,1015.36
2023-01-21T05:22:23.136Z,1015.48
2023-01-21T05:23:23.136Z,1015.48
2023-01-21T05:24:23.301Z,1015.54
2023-01-21T05:25:23.094Z,1015.53
2023-01-21T05:26:23.095Z,1015.50
2023-01-21T05:27:23.256Z,1015.50
2023-01-21T05:28:23.075Z,1015.53
2023-01-21T05:29:23.049Z,1015.58
2023-01-21T05:30:23.045Z,1015.58
2023-01-21T05:31:23.101Z,1015.54
2023-01-21T05:32:23.194Z,1015.62
2023-01-21T05:33:22.995Z,1015.63
2023-01-21T05:34:23.175Z,1015.56
2023-01-21T05:35:22.984Z,1015.57
2023-01-21T05:36:22.962Z,1015.65
2023-01-21T05:37:22.952Z,1015.60
2023-01-21T05:38:22.932Z,1015.65
2023-01-21T05:39:23.100Z,1015.72
2023-01-21T05:40:22.911Z,1015.64
2023-01-21T05:41:22.912Z,1015.67
2023-01-21T05:42:22.889Z,1015.78
2023-01-21T05:43:22.879Z,1015.78
2023-01-21T05:44:23.042Z,1015.73
2023-01-21T05:45:22.851Z,1015.74
2023-01-21T05:46:23.055Z,1015.76
2023-01-21T05:47:22.836Z,1015.80
2023-01-21T05:48:22.818Z,1015.79
2023-01-21T05:49:22.801Z,1015.78
2023-01-21T05:50:22.782Z,1015.80
2023-01-21T05:51:23.010Z,1015.87
2023-01-21T05:52:22.764Z,1015.84
2023-01-21T05:53:23.011Z,1015.87
2023-01-21T05:54:22.737Z,1015.90
2023-01-21T05:55:22.770Z,1015.89
2023-01-21T05:56:22.707Z,1015.93
2023-01-21T05:57:22.704Z,1015.96
2023-01-21T05:58:22.866Z,1015.94
2023-01-21T05:59:22.858Z,1016.05
2023-01-21T06:00:22.671Z,1016.11
2023-01-21T06:01:22.655Z,1016.03
2023-01-21T06:02:22.691Z,1016.04
2023-01-21T06:03:22.681Z,1016.04
2023-01-21T06:04:23.986Z,1016.09
2023-01-21T06:05:22.615Z,1016.12
2023-01-21T06:06:22.584Z,1016.09
2023-01-21T06:07:22.585Z,1016.21
2023-01-21T06:08:22.563Z,1016.18
2023-01-21T06:09:22.735Z,1016.21
2023-01-21T06:10:22.548Z,1016.20
2023-01-21T06:11:22.524Z,1016.16
2023-01-21T06:12:24.673Z,1016.25
2023-01-21T06:13:22.508Z,1016.25
2023-01-21T06:14:22.511Z,1016.19
2023-01-21T06:15:22.480Z,1016.26
2023-01-21T06:16:22.478Z,1016.17
2023-01-21T06:17:22.462Z,1016.29
2023-01-21T06:18:22.621Z,1016.30
2023-01-21T06:19:22.428Z,1016.23
2023-01-21T06:20:22.409Z,1016.23
2023-01-21T06:21:22.393Z,1016.28
2023-01-21T06:22:22.404Z,1016.29
2023-01-21T06:23:22.568Z,1016.33
2023-01-21T06:24:22.369Z,1016.30
2023-01-21T06:25:22.347Z,1016.41
2023-01-21T06:26:22.354Z,1016.35
2023-01-21T06:27:22.320Z,1016.35
2023-01-21T06:28:22.322Z,1016.41
2023-01-21T06:29:22.478Z,1016.39
2023-01-21T06:30:22.474Z,1016.37
2023-01-21T06:31:22.431Z,1016.43
2023-01-21T06:32:22.276Z,1016.52
2023-01-21T06:33:22.247Z,1016.43
2023-01-21T06:34:22.244Z,1016.44
2023-01-21T06:35:22.247Z,1016.52
2023-01-21T06:36:22.225Z,1016.45
2023-01-21T06:37:22.216Z,1016.43
2023-01-21T06:38:22.206Z,1016.53
2023-01-21T06:39:22.180Z,1016.56
2023-01-21T06:40:22.366Z,1016.55
2023-01-21T06:41:22.357Z,1016.50
2023-01-21T06:42:22.146Z,1016.47
2023-01-21T06:43:22.128Z,1016.53
2023-01-21T06:44:22.123Z,1016.56
2023-01-21T06:45:22.110Z,1016.51
2023-01-21T06:46:22.293Z,1016.48
2023-01-21T06:47:22.094Z,1016.55
2023-01-21T06:48:22.253Z,1016.56
2023-01-21T06:49:22.051Z,1016.55
2023-01-21T06:50:22.047Z,1016.61
2023-01-21T06:51:22.195Z,1016.55
2023-01-21T06:52:22.059Z,1016.60
2023-01-21T06:53:22.002Z,1016.58
2023-01-21T06:54:21.992Z,1016.56
2023-01-21T06:55:21.985Z,1016.58
2023-01-21T06:56:21.994Z,1016.56
2023-01-21T06:57:21.978Z,1016.62
2023-01-21T06:58:21.958Z,1016.65
2023-01-21T06:59:21.928Z,1016.68
2023-01-21T07:00:21.923Z,1016.63
2023-01-21T07:01:21.948Z,1016.61
2023-01-21T07:02:21.899Z,1016.61
2023-01-21T07:03:22.048Z,1016.70
2023-01-21T07:04:21.871Z,1016.67
2023-01-21T07:05:21.860Z,1016.68
2023-01-21T07:06:21.856Z,1016.66
2023-01-21T07:07:21.826Z,1016.76
2023-01-21T07:08:21.829Z,1016.71
2023-01-21T07:09:21.807Z,1016.73
2023-01-21T07:10:21.981Z,1016.74
2023-01-21T07:11:21.820Z,1016.73
2023-01-21T07:12:21.799Z,1016.76
2023-01-21T07:13:21.769Z,1016.77
2023-01-21T07:14:21.783Z,1016.79
2023-01-21T07:15:21.731Z,1016.84
2023-01-21T07:16:21.779Z,1016.86
2023-01-21T07:17:21.723Z,1016.84
2023-01-21T07:18:21.702Z,1016.87
2023-01-21T07:19:21.693Z,1016.84
2023-01-21T07:20:21.916Z,1016.86
2023-01-21T07:21:21.658Z,1016.87
2023-01-21T07:22:21.653Z,1016.91
2023-01-21T07:23:21.636Z,1016.92
2023-01-21T07:24:21.629Z,1016.91
2023-01-21T07:25:21.628Z,1016.94
2023-01-21T07:26:21.791Z,1016.97
2023-01-21T07:27:21.587Z,1016.95
2023-01-21T07:28:22.521Z,1016.98
2023-01-21T07:29:21.559Z,1016.98
2023-01-21T07:30:21.560Z,1017.04
2023-01-21T07:31:21.816Z,1017.08
2023-01-21T07:32:21.529Z,1017.10
2023-01-21T07:33:21.512Z,1017.12
2023-01-21T07:34:21.497Z,1017.13
2023-01-21T07:35:21.479Z,1017.21
2023-01-21T07:36:21.470Z,1017.15
2023-01-21T07:37:21.470Z,1017.09
2023-01-21T07:38:21.457Z,1017.14
2023-01-21T07:39:21.437Z,1017.13
2023-01-21T07:40:21.418Z,1017.16
2023-01-21T07:41:21.406Z,1017.16
2023-01-21T07:42:21.409Z,1017.15
2023-01-21T07:43:21.394Z,1017.14
2023-01-21T07:44:21.375Z,1017.17
2023-01-21T07:45:21.360Z,1017.17
2023-01-21T07:46:21.355Z,1017.21
2023-01-21T07:47:21.335Z,1017.12
2023-01-21T07:48:21.333Z,1017.26
2023-01-21T07:49:21.475Z,1017.17
2023-01-21T07:50:21.309Z,1017.27
2023-01-21T07:51:21.351Z,1017.32
2023-01-21T07:52:21.272Z,1017.29
2023-01-21T07:53:21.254Z,1017.33
2023-01-21T07:54:21.412Z,1017.32
2023-01-21T07:55:21.253Z,1017.28
2023-01-21T07:56:21.244Z,1017.32
2023-01-21T07:57:21.201Z,1017.27
2023-01-21T07:58:21.201Z,1017.35
2023-01-21T07:59:21.182Z,1017.29
2023-01-21T08:00:21.183Z,1017.32
2023-01-21T08:01:23.251Z,1017.32
2023-01-21T08:02:21.285Z,1017.35
2023-01-21T08:03:21.130Z,1017.40
2023-01-21T08:04:21.133Z,1017.39
2023-01-21T08:05:21.109Z,1017.42
2023-01-21T08:06:21.125Z,1017.38
2023-01-21T08:07:21.068Z,1017.42
2023-01-21T08:08:21.068Z,1017.47
2023-01-21T08:09:21.060Z,1017.45
2023-01-21T08:10:21.047Z,1017.43
2023-01-21T08:11:21.208Z,1017.50
2023-01-21T08:12:21.033Z,1017.49
2023-01-21T08:13:21.059Z,1017.47
2023-01-21T08:14:21.032Z,1017.52
2023-01-21T08:15:20.994Z,1017.60
2023-01-21T08:16:21.002Z,1017.54
2023-01-21T08:17:20.962Z,1017.43
2023-01-21T08:18:21.137Z,1017.41
2023-01-21T08:19:20.945Z,1017.45
2023-01-21T08:20:21.102Z,1017.51
2023-01-21T08:21:20.921Z,1017.48
2023-01-21T08:22:21.030Z,1017.59
2023-01-21T08:23:20.884Z,1017.57
2023-01-21T08:24:20.932Z,1017.59
2023-01-21T08:25:20.898Z,1017.51
2023-01-21T08:26:20.853Z,1017.55
2023-01-21T08:27:20.840Z,1017.60
2023-01-21T08:28:20.825Z,1017.56
2023-01-21T08:29:20.820Z,1017.56
2023-01-21T08:30:20.983Z,1017.60
2023-01-21T08:31:20.806Z,1017.55
2023-01-21T08:32:20.772Z,1017.54
2023-01-21T08:33:20.759Z,1017.56
2023-01-21T08:34:20.753Z,1017.58
2023-01-21T08:35:20.744Z,1017.61
2023-01-21T08:36:20.733Z,1017.62
2023-01-21T08:37:20.717Z,1017.62
2023-01-21T08:38:20.692Z,1017.59
2023-01-21T08:39:20.687Z,1017.61
2023-01-21T08:40:20.665Z,1017.65
2023-01-21T08:41:20.678Z,1017.71
2023-01-21T08:42:20.648Z,1017.67
2023-01-21T08:43:20.644Z,1017.72
2023-01-21T08:44:20.633Z,1017.70
2023-01-21T08:45:20.937Z,1017.76
2023-01-21T08:46:20.596Z,1017.74
2023-01-21T08:47:20.764Z,1017.80
2023-01-21T08:48:20.749Z,1017.73
2023-01-21T08:49:20.565Z,1017.76
2023-01-21T08:50:20.546Z,1017.72
2023-01-21T08:51:20.628Z,1017.79
2023-01-21T08:52:20.521Z,1017.80
2023-01-21T08:53:20.692Z,1017.82
2023-01-21T08:54:20.496Z,1017.75
2023-01-21T08:55:20.495Z,1017.79
2023-01-21T08:56:20.473Z,1017.86
2023-01-21T08:57:20.465Z,1017.83
2023-01-21T08:58:20.624Z,1017.82
2023-01-21T08:59:20.432Z,1017.82
2023-01-21T09:00:20.428Z,1017.83
2023-01-21T09:01:20.514Z,1017.85
2023-01-21T09:02:20.458Z,1017.87
2023-01-21T09:03:20.573Z,1017.90
2023-01-21T09:04:20.383Z,1017.79
2023-01-21T09:05:20.369Z,1017.89
2023-01-21T09:06:20.843Z,1017.89
2023-01-21T09:07:20.347Z,1017.91
2023-01-21T09:08:20.311Z,1017.93
2023-01-21T09:09:20.321Z,1017.86
2023-01-21T09:10:20.307Z,1017.85
2023-01-21T09:11:20.427Z,1017.84
2023-01-21T09:12:20.278Z,1017.91
2023-01-21T09:13:20.279Z,1017.92
2023-01-21T09:14:20.244Z,1017.97
2023-01-21T09:15:20.241Z,1017.95
2023-01-21T09:16:20.411Z,1017.94
2023-01-21T09:17:20.226Z,1017.98
2023-01-21T09:18:20.206Z,1017.97
2023-01-21T09:19:20.189Z,1017.95
2023-01-21T09:20:20.231Z,1017.98
2023-01-21T09:21:20.167Z,1018.06
2023-01-21T09:22:20.317Z,1018.03
2023-01-21T09:23:20.132Z,1018.06
2023-01-21T09:24:20.123Z,1018.05
2023-01-21T09:25:23.080Z,1018.02
2023-01-21T09:26:20.144Z,1018.03
2023-01-21T09:27:20.093Z,1018.01
2023-01-21T09:28:20.073Z,1017.97
2023-01-21T09:29:20.067Z,1018.05
2023-01-21T09:30:20.151Z,1018.02
2023-01-21T09:31:20.042Z,1018.07
2023-01-21T09:32:20.200Z,1018.08
2023-01-21T09:33:20.017Z,1018.14
2023-01-21T09:34:20.174Z,1018.03
2023-01-21T09:35:19.984Z,1018.10
2023-01-21T09:36:19.963Z,1018.07
2023-01-21T09:37:19.956Z,1018.20
2023-01-21T09:38:19.942Z,1018.13
2023-01-21T09:39:20.108Z,1018.11
2023-01-21T09:40:19.948Z,1018.16
2023-01-21T09:41:19.915Z,1018.13
2023-01-21T09:42:19.896Z,1018.15
2023-01-21T09:43:19.925Z,1018.15
2023-01-21T09:44:19.875Z,1018.21
2023-01-21T09:45:19.885Z,1018.20
2023-01-21T09:46:20.057Z,1018.25
2023-01-21T09:47:19.830Z,1018.22
2023-01-21T09:48:19.838Z,1018.25
2023-01-21T09:49:19.814Z,1018.22
2023-01-21T09:50:19.825Z,1018.26
2023-01-21T09:51:19.985Z,1018.29
2023-01-21T09:52:19.772Z,1018.30
2023-01-21T09:53:19.761Z,1018.25
2023-01-21T09:54:19.740Z,1018.37
2023-01-21T09:55:20.008Z,1018.32
2023-01-21T09:56:19.728Z,1018.30
2023-01-21T09:57:20.212Z,1018.32
2023-01-21T09:58:19.700Z,1018.28
2023-01-21T09:59:21.087Z,1018.37
2023-01-21T10:00:19.682Z,1018.43
2023-01-21T10:01:19.703Z,1018.41
2023-01-21T10:02:19.638Z,1018.41
2023-01-21T10:03:19.636Z,1018.43
2023-01-21T10:04:19.637Z,1018.36
2023-01-21T10:05:19.609Z,1018.41
2023-01-21T10:06:19.753Z,1018.41
2023-01-21T10:07:19.582Z,1018.44
2023-01-21T10:08:19.564Z,1018.44
2023-01-21T10:09:19.742Z,1018.46
2023-01-21T10:10:19.543Z,1018.39
2023-01-21T10:11:19.551Z,1018.49
2023-01-21T10:12:19.513Z,1018.43
2023-01-21T10:13:19.507Z,1018.41
2023-01-21T10:14:19.499Z,1018.39
2023-01-21T10:15:19.687Z,1018.44
2023-01-21T10:16:19.541Z,1018.42
2023-01-21T10:17:19.462Z,1018.38
2023-01-21T10:18:19.445Z,1018.43
2023-01-21T10:19:19.449Z,1018.41
2023-01-21T10:20:19.408Z,1018.47
2023-01-21T10:21:19.620Z,1018.39
2023-01-21T10:22:19.389Z,1018.40
2023-01-21T10:23:19.377Z,1018.42
2023-01-21T10:24:19.361Z,1018.43
2023-01-21T10:25:19.537Z,1018.47
2023-01-21T10:26:19.350Z,1018.48
2023-01-21T10:27:19.390Z,1018.40
2023-01-21T10:28:19.332Z,1018.42
2023-01-21T10:29:19.296Z,1018.39
2023-01-21T10:30:19.297Z,1018.43
2023-01-21T10:31:19.429Z,1018.45
2023-01-21T10:32:19.265Z,1018.48
2023-01-21T10:33:19.390Z,1018.49
2023-01-21T10:34:19.248Z,1018.38
2023-01-21T10:35:19.411Z,1018.50
2023-01-21T10:36:19.944Z,1018.50
2023-01-21T10:37:19.201Z,1018.50
2023-01-21T10:38:19.191Z,1018.46
2023-01-21T10:39:19.177Z,1018.48
2023-01-21T10:40:19.190Z,1018.53
2023-01-21T10:41:19.151Z,1018.51
2023-01-21T10:42:19.151Z,1018.44
2023-01-21T10:43:19.183Z,1018.44
2023-01-21T10:44:19.129Z,1018.50
2023-01-21T10:45:19.498Z,1018.57
2023-01-21T10:46:19.152Z,1018.53
2023-01-21T10:47:19.084Z,1018.51
2023-01-21T10:48:19.062Z,1018.46
2023-01-21T10:49:19.041Z,1018.50
2023-01-21T10:50:19.212Z,1018.46
2023-01-21T10:51:19.109Z,1018.47
2023-01-21T10:52:19.012Z,1018.28
2023-01-21T10:53:18.990Z,1018.36
2023-01-21T10:54:20.928Z,1018.39
2023-01-21T10:55:19.350Z,1018.43
2023-01-21T10:56:18.960Z,1018.40
2023-01-21T10:57:18.951Z,1018.38
2023-01-21T10:58:18.939Z,1018.45
2023-01-21T10:59:18.917Z,1018.37
2023-01-21T11:00:19.120Z,1018.37
2023-01-21T11:01:18.922Z,1018.41
2023-01-21T11:02:18.923Z,1018.47
2023-01-21T11:03:18.878Z,1018.37
2023-01-21T11:04:18.875Z,1018.38
2023-01-21T11:05:19.086Z,1018.38
2023-01-21T11:06:18.851Z,1018.33
2023-01-21T11:07:18.870Z,1018.39
2023-01-21T11:08:18.843Z,1018.35
2023-01-21T11:09:18.889Z,1018.37
2023-01-21T11:10:18.854Z,1018.42
2023-01-21T11:11:18.885Z,1018.37
2023-01-21T11:12:18.764Z,1018.42
2023-01-21T11:13:18.758Z,1018.45
2023-01-21T11:14:21.161Z,1018.38
2023-01-21T11:15:19.107Z,1018.39
2023-01-21T11:16:18.735Z,1018.37
2023-01-21T11:17:18.867Z,1018.41
2023-01-21T11:18:18.686Z,1018.33
2023-01-21T11:19:18.672Z,1018.31
2023-01-21T11:20:21.519Z,1018.36
2023-01-21T11:21:18.647Z,1018.34
2023-01-21T11:22:18.671Z,1018.37
2023-01-21T11:23:18.636Z,1018.41
2023-01-21T11:24:18.806Z,1018.42
2023-01-21T11:25:18.782Z,1018.45
2023-01-21T11:26:18.580Z,1018.40
2023-01-21T11:27:18.561Z,1018.46
2023-01-21T11:28:18.564Z,1018.39
2023-01-21T11:29:18.737Z,1018.37
2023-01-21T11:30:37.327Z,1018.40
2023-01-21T11:31:19.566Z,1018.35
2023-01-21T11:32:18.587Z,1018.42
2023-01-21T11:33:18.493Z,1018.36
2023-01-21T11:34:18.488Z,1018.37
2023-01-21T11:35:18.479Z,1018.39
2023-01-21T11:36:18.471Z,1018.44
2023-01-21T11:37:18.522Z,1018.39
2023-01-21T11:38:18.428Z,1018.48
2023-01-21T11:39:18.417Z,1018.38
2023-01-21T11:40:20.788Z,1018.42
2023-01-21T11:41:18.387Z,1018.37
2023-01-21T11:42:18.380Z,1018.31
2023-01-21T11:43:18.367Z,1018.39
2023-01-21T11:44:18.409Z,1018.47
2023-01-21T11:45:18.629Z,1018.35
2023-01-21T11:46:18.333Z,1018.42
2023-01-21T11:47:18.314Z,1018.39
2023-01-21T11:48:18.308Z,1018.37
2023-01-21T11:49:18.292Z,1018.41
2023-01-21T11:50:18.536Z,1018.40
2023-01-21T11:51:18.353Z,1018.42
2023-01-21T11:52:18.253Z,1018.38
2023-01-21T11:53:18.269Z,1018.39
2023-01-21T11:54:18.224Z,1018.40
2023-01-21T11:55:18.231Z,1018.36
2023-01-21T11:56:18.202Z,1018.37
2023-01-21T11:57:18.217Z,1018.37
2023-01-21T11:58:18.182Z,1018.47
2023-01-21T11:59:18.171Z,1018.32
2023-01-21T12:00:18.414Z,1018.47
2023-01-21T12:01:18.144Z,1018.33
2023-01-21T12:02:18.366Z,1018.35
2023-01-21T12:03:18.144Z,1018.30
2023-01-21T12:04:18.112Z,1018.39
2023-01-21T12:05:18.095Z,1018.34